sensor_id;sensor_type;location;lat;lon;timestamp;temperature;humidity
8709;DHT22;4391;48.678;9.280;2023-04-24T00:01:02;10.30;1.00
8709;DHT22;4391;48.678;9.280;2023-04-24T00:03:29;10.20;1.00
8709;DHT22;4391;48.678;9.280;2023-04-24T00:05:55;10.20;1.00
8709;DHT22;4391;48.678;9.280;2023-04-24T00:08:24;10.20;11.00
8709;DHT22;4391;48.678;9.280;2023-04-24T00:10:52;10.20;11.80
8709;DHT22;4391;48.678;9.280;2023-04-24T00:13:19;10.10;1.00
8709;DHT22;4391;48.678;9.280;2023-04-24T00:15:46;10.10;1.00
8709;DHT22;4391;48.678;9.280;2023-04-24T00:18:13;10.20;1.00
8709;DHT22;4391;48.678;9.280;2023-04-24T00:20:39;10.20;1.00
8709;DHT22;4391;48.678;9.280;2023-04-24T00:23:06;10.20;1.00
8709;DHT22;4391;48.678;9.280;2023-04-24T00:25:33;10.30;1.00
8709;DHT22;4391;48.678;9.280;2023-04-24T00:28:01;10.40;1.00
8709;DHT22;4391;48.678;9.280;2023-04-24T00:30:28;10.50;1.00
8709;DHT22;4391;48.678;9.280;2023-04-24T00:32:55;10.60;1.00
8709;DHT22;4391;48.678;9.280;2023-04-24T00:35:22;10.60;1.00
8709;DHT22;4391;48.678;9.280;2023-04-24T00:37:49;10.70;1.00
8709;DHT22;4391;48.678;9.280;2023-04-24T00:40:16;10.70;1.00
8709;DHT22;4391;48.678;9.280;2023-04-24T00:42:43;10.80;1.00
8709;DHT22;4391;48.678;9.280;2023-04-24T00:45:12;10.80;1.00
8709;DHT22;4391;48.678;9.280;2023-04-24T00:47:39;10.80;1.00
8709;DHT22;4391;48.678;9.280;2023-04-24T00:50:07;10.80;1.00
8709;DHT22;4391;48.678;9.280;2023-04-24T00:52:34;10.80;1.00
8709;DHT22;4391;48.678;9.280;2023-04-24T00:55:01;10.80;1.00
8709;DHT22;4391;48.678;9.280;2023-04-24T00:57:28;10.80;1.00
8709;DHT22;4391;48.678;9.280;2023-04-24T00:59:55;10.90;99.90
8709;DHT22;4391;48.678;9.280;2023-04-24T01:02:23;10.90;99.90
8709;DHT22;4391;48.678;9.280;2023-04-24T01:04:51;10.90;99.90
8709;DHT22;4391;48.678;9.280;2023-04-24T01:07:19;10.90;99.90
8709;DHT22;4391;48.678;9.280;2023-04-24T01:09:48;10.90;99.90
8709;DHT22;4391;48.678;9.280;2023-04-24T01:12:17;10.90;99.90
8709;DHT22;4391;48.678;9.280;2023-04-24T01:14:43;10.90;1.00
8709;DHT22;4391;48.678;9.280;2023-04-24T01:17:11;10.90;1.00
8709;DHT22;4391;48.678;9.280;2023-04-24T01:19:39;10.90;99.90
8709;DHT22;4391;48.678;9.280;2023-04-24T01:22:12;11.00;99.90
8709;DHT22;4391;48.678;9.280;2023-04-24T01:24:39;11.00;99.90
8709;DHT22;4391;48.678;9.280;2023-04-24T01:27:06;10.90;99.90
8709;DHT22;4391;48.678;9.280;2023-04-24T01:29:34;10.90;1.00
8709;DHT22;4391;48.678;9.280;2023-04-24T01:32:00;10.90;1.00
8709;DHT22;4391;48.678;9.280;2023-04-24T01:34:27;10.90;99.90
8709;DHT22;4391;48.678;9.280;2023-04-24T01:36:54;10.90;99.90
8709;DHT22;4391;48.678;9.280;2023-04-24T01:39:23;10.80;99.90
8709;DHT22;4391;48.678;9.280;2023-04-24T01:41:51;10.80;99.90
8709;DHT22;4391;48.678;9.280;2023-04-24T01:44:18;10.80;99.90
8709;DHT22;4391;48.678;9.280;2023-04-24T01:46:45;10.80;99.90
8709;DHT22;4391;48.678;9.280;2023-04-24T01:49:11;10.70;1.00
8709;DHT22;4391;48.678;9.280;2023-04-24T01:51:38;10.70;1.00
8709;DHT22;4391;48.678;9.280;2023-04-24T01:54:05;10.70;1.00
8709;DHT22;4391;48.678;9.280;2023-04-24T01:56:35;10.60;1.00
8709;DHT22;4391;48.678;9.280;2023-04-24T01:59:03;10.60;1.00
8709;DHT22;4391;48.678;9.280;2023-04-24T02:01:34;10.60;1.00
8709;DHT22;4391;48.678;9.280;2023-04-24T02:04:02;10.60;1.00
8709;DHT22;4391;48.678;9.280;2023-04-24T02:06:29;10.70;1.00
8709;DHT22;4391;48.678;9.280;2023-04-24T02:08:57;10.70;1.00
8709;DHT22;4391;48.678;9.280;2023-04-24T02:11:23;10.70;1.00
8709;DHT22;4391;48.678;9.280;2023-04-24T02:13:52;10.70;1.00
8709;DHT22;4391;48.678;9.280;2023-04-24T02:16:19;10.60;1.00
8709;DHT22;4391;48.678;9.280;2023-04-24T02:18:45;10.60;1.00
8709;DHT22;4391;48.678;9.280;2023-04-24T02:21:12;10.50;1.00
8709;DHT22;4391;48.678;9.280;2023-04-24T02:23:39;10.50;1.00
8709;DHT22;4391;48.678;9.280;2023-04-24T02:26:06;10.40;1.00
8709;DHT22;4391;48.678;9.280;2023-04-24T02:28:33;10.30;1.00
8709;DHT22;4391;48.678;9.280;2023-04-24T02:31:01;10.20;3.90
8709;DHT22;4391;48.678;9.280;2023-04-24T02:33:28;10.10;5.40
8709;DHT22;4391;48.678;9.280;2023-04-24T02:35:54;10.10;6.90
8709;DHT22;4391;48.678;9.280;2023-04-24T02:38:22;10.00;12.20
8709;DHT22;4391;48.678;9.280;2023-04-24T02:40:48;10.00;11.60
8709;DHT22;4391;48.678;9.280;2023-04-24T02:43:15;10.10;1.60
8709;DHT22;4391;48.678;9.280;2023-04-24T02:45:42;10.00;15.40
8709;DHT22;4391;48.678;9.280;2023-04-24T02:48:10;10.10;8.80
8709;DHT22;4391;48.678;9.280;2023-04-24T02:50:37;10.20;1.00
8709;DHT22;4391;48.678;9.280;2023-04-24T02:53:04;10.30;1.00
8709;DHT22;4391;48.678;9.280;2023-04-24T02:55:30;10.30;1.00
8709;DHT22;4391;48.678;9.280;2023-04-24T02:57:57;10.40;1.00
8709;DHT22;4391;48.678;9.280;2023-04-24T03:00:24;10.40;1.00
8709;DHT22;4391;48.678;9.280;2023-04-24T03:02:51;10.40;1.00
8709;DHT22;4391;48.678;9.280;2023-04-24T03:05:20;10.40;1.00
8709;DHT22;4391;48.678;9.280;2023-04-24T03:07:46;10.40;1.00
8709;DHT22;4391;48.678;9.280;2023-04-24T03:10:13;10.40;1.00
8709;DHT22;4391;48.678;9.280;2023-04-24T03:12:40;10.40;1.00
8709;DHT22;4391;48.678;9.280;2023-04-24T03:15:08;10.40;1.00
8709;DHT22;4391;48.678;9.280;2023-04-24T03:17:35;10.40;1.00
8709;DHT22;4391;48.678;9.280;2023-04-24T03:20:02;10.30;10.40
8709;DHT22;4391;48.678;9.280;2023-04-24T03:22:32;10.30;19.20
8709;DHT22;4391;48.678;9.280;2023-04-24T03:24:59;10.30;37.60
8709;DHT22;4391;48.678;9.280;2023-04-24T03:27:26;10.20;41.60
8709;DHT22;4391;48.678;9.280;2023-04-24T03:29:52;10.10;46.50
8709;DHT22;4391;48.678;9.280;2023-04-24T03:32:21;10.10;57.00
8709;DHT22;4391;48.678;9.280;2023-04-24T03:34:48;10.00;65.90
8709;DHT22;4391;48.678;9.280;2023-04-24T03:37:15;10.00;81.60
8709;DHT22;4391;48.678;9.280;2023-04-24T03:39:43;9.90;90.20
8709;DHT22;4391;48.678;9.280;2023-04-24T03:42:10;9.90;91.90
8709;DHT22;4391;48.678;9.280;2023-04-24T03:44:37;9.90;95.20
8709;DHT22;4391;48.678;9.280;2023-04-24T03:47:04;9.90;96.40
8709;DHT22;4391;48.678;9.280;2023-04-24T03:49:30;9.90;96.00
8709;DHT22;4391;48.678;9.280;2023-04-24T03:51:57;9.80;97.30
8709;DHT22;4391;48.678;9.280;2023-04-24T03:54:24;9.80;98.50
8709;DHT22;4391;48.678;9.280;2023-04-24T03:56:52;9.80;98.10
8709;DHT22;4391;48.678;9.280;2023-04-24T03:59:19;9.80;99.30
8709;DHT22;4391;48.678;9.280;2023-04-24T04:01:46;9.70;99.90
8709;DHT22;4391;48.678;9.280;2023-04-24T04:04:13;9.70;99.90
8709;DHT22;4391;48.678;9.280;2023-04-24T04:06:40;9.60;99.90
8709;DHT22;4391;48.678;9.280;2023-04-24T04:09:07;9.60;99.90
8709;DHT22;4391;48.678;9.280;2023-04-24T04:11:34;9.60;99.90
8709;DHT22;4391;48.678;9.280;2023-04-24T04:14:03;9.50;99.90
8709;DHT22;4391;48.678;9.280;2023-04-24T04:16:30;9.60;99.90
8709;DHT22;4391;48.678;9.280;2023-04-24T04:18:57;9.60;99.90
8709;DHT22;4391;48.678;9.280;2023-04-24T04:21:24;9.70;99.00
8709;DHT22;4391;48.678;9.280;2023-04-24T04:23:52;9.80;95.10
8709;DHT22;4391;48.678;9.280;2023-04-24T04:26:18;9.80;91.60
8709;DHT22;4391;48.678;9.280;2023-04-24T04:28:46;9.80;90.40
8709;DHT22;4391;48.678;9.280;2023-04-24T04:31:15;9.80;86.80
8709;DHT22;4391;48.678;9.280;2023-04-24T04:33:42;9.80;88.40
8709;DHT22;4391;48.678;9.280;2023-04-24T04:36:09;9.90;82.80
8709;DHT22;4391;48.678;9.280;2023-04-24T04:38:36;9.90;77.40
8709;DHT22;4391;48.678;9.280;2023-04-24T04:41:03;9.90;74.20
8709;DHT22;4391;48.678;9.280;2023-04-24T04:43:30;9.90;72.10
8709;DHT22;4391;48.678;9.280;2023-04-24T04:45:59;10.00;64.00
8709;DHT22;4391;48.678;9.280;2023-04-24T04:48:30;10.00;70.60
8709;DHT22;4391;48.678;9.280;2023-04-24T04:50:57;10.00;98.30
8709;DHT22;4391;48.678;9.280;2023-04-24T04:53:24;9.80;52.80
8709;DHT22;4391;48.678;9.280;2023-04-24T04:55:51;9.50;17.30
8709;DHT22;4391;48.678;9.280;2023-04-24T04:58:18;9.20;32.10
8709;DHT22;4391;48.678;9.280;2023-04-24T05:00:45;8.80;97.60
8709;DHT22;4391;48.678;9.280;2023-04-24T05:03:12;8.60;99.90
8709;DHT22;4391;48.678;9.280;2023-04-24T05:05:40;8.50;99.90
8709;DHT22;4391;48.678;9.280;2023-04-24T05:08:07;8.40;99.90
8709;DHT22;4391;48.678;9.280;2023-04-24T05:10:34;8.30;99.90
8709;DHT22;4391;48.678;9.280;2023-04-24T05:13:02;8.30;99.90
8709;DHT22;4391;48.678;9.280;2023-04-24T05:15:32;8.30;99.90
8709;DHT22;4391;48.678;9.280;2023-04-24T05:17:59;8.30;99.90
8709;DHT22;4391;48.678;9.280;2023-04-24T05:20:26;8.30;99.90
8709;DHT22;4391;48.678;9.280;2023-04-24T05:22:54;8.30;99.90
8709;DHT22;4391;48.678;9.280;2023-04-24T05:25:21;8.30;99.90
8709;DHT22;4391;48.678;9.280;2023-04-24T05:27:48;8.30;99.90
8709;DHT22;4391;48.678;9.280;2023-04-24T05:30:14;8.30;99.90
8709;DHT22;4391;48.678;9.280;2023-04-24T05:32:41;8.30;99.90
8709;DHT22;4391;48.678;9.280;2023-04-24T05:35:08;8.30;99.90
8709;DHT22;4391;48.678;9.280;2023-04-24T05:37:35;8.30;99.90
8709;DHT22;4391;48.678;9.280;2023-04-24T05:40:04;8.30;99.90
8709;DHT22;4391;48.678;9.280;2023-04-24T05:42:31;8.30;99.90
8709;DHT22;4391;48.678;9.280;2023-04-24T05:44:58;8.30;99.90
8709;DHT22;4391;48.678;9.280;2023-04-24T05:47:25;8.30;99.90
8709;DHT22;4391;48.678;9.280;2023-04-24T05:49:52;8.30;99.90
8709;DHT22;4391;48.678;9.280;2023-04-24T05:52:19;8.30;99.90
8709;DHT22;4391;48.678;9.280;2023-04-24T05:54:46;8.40;99.90
8709;DHT22;4391;48.678;9.280;2023-04-24T05:57:14;8.50;99.90
8709;DHT22;4391;48.678;9.280;2023-04-24T05:59:41;8.50;99.90
8709;DHT22;4391;48.678;9.280;2023-04-24T06:02:08;8.60;99.90
8709;DHT22;4391;48.678;9.280;2023-04-24T06:04:35;8.60;99.90
8709;DHT22;4391;48.678;9.280;2023-04-24T06:07:02;8.70;99.90
8709;DHT22;4391;48.678;9.280;2023-04-24T06:09:29;8.60;99.90
8709;DHT22;4391;48.678;9.280;2023-04-24T06:11:55;8.70;99.90
8709;DHT22;4391;48.678;9.280;2023-04-24T06:14:24;8.60;99.90
8709;DHT22;4391;48.678;9.280;2023-04-24T06:16:51;8.80;99.90
8709;DHT22;4391;48.678;9.280;2023-04-24T06:19:17;8.90;99.90
8709;DHT22;4391;48.678;9.280;2023-04-24T06:21:44;8.90;99.90
8709;DHT22;4391;48.678;9.280;2023-04-24T06:24:14;9.00;99.90
8709;DHT22;4391;48.678;9.280;2023-04-24T06:26:41;9.00;99.90
8709;DHT22;4391;48.678;9.280;2023-04-24T06:29:08;9.00;99.90
8709;DHT22;4391;48.678;9.280;2023-04-24T06:31:36;9.20;99.90
8709;DHT22;4391;48.678;9.280;2023-04-24T06:34:03;9.50;99.90
8709;DHT22;4391;48.678;9.280;2023-04-24T06:36:30;9.70;61.90
8709;DHT22;4391;48.678;9.280;2023-04-24T06:38:59;10.10;83.30
8709;DHT22;4391;48.678;9.280;2023-04-24T06:41:26;10.20;32.70
8709;DHT22;4391;48.678;9.280;2023-04-24T06:43:53;10.70;68.10
8709;DHT22;4391;48.678;9.280;2023-04-24T06:46:20;10.90;17.90
8709;DHT22;4391;48.678;9.280;2023-04-24T06:48:50;11.10;9.30
8709;DHT22;4391;48.678;9.280;2023-04-24T06:51:17;11.40;6.60
8709;DHT22;4391;48.678;9.280;2023-04-24T06:53:44;11.50;1.00
8709;DHT22;4391;48.678;9.280;2023-04-24T06:56:11;11.90;1.00
8709;DHT22;4391;48.678;9.280;2023-04-24T06:58:38;11.90;1.00
8709;DHT22;4391;48.678;9.280;2023-04-24T07:01:04;12.00;1.00
8709;DHT22;4391;48.678;9.280;2023-04-24T07:03:31;12.50;1.00
8709;DHT22;4391;48.678;9.280;2023-04-24T07:05:59;13.00;99.90
8709;DHT22;4391;48.678;9.280;2023-04-24T07:08:26;12.90;99.90
8709;DHT22;4391;48.678;9.280;2023-04-24T07:10:53;12.70;1.00
8709;DHT22;4391;48.678;9.280;2023-04-24T07:13:21;12.60;1.00
8709;DHT22;4391;48.678;9.280;2023-04-24T07:15:48;12.20;99.90
8709;DHT22;4391;48.678;9.280;2023-04-24T07:18:16;12.00;1.00
8709;DHT22;4391;48.678;9.280;2023-04-24T07:20:43;11.80;1.00
8709;DHT22;4391;48.678;9.280;2023-04-24T07:23:12;11.80;1.00
8709;DHT22;4391;48.678;9.280;2023-04-24T07:25:39;11.50;99.90
8709;DHT22;4391;48.678;9.280;2023-04-24T07:28:06;11.30;1.00
8709;DHT22;4391;48.678;9.280;2023-04-24T07:30:33;11.00;1.00
8709;DHT22;4391;48.678;9.280;2023-04-24T07:33:00;10.90;1.00
8709;DHT22;4391;48.678;9.280;2023-04-24T07:35:27;10.90;1.00
8709;DHT22;4391;48.678;9.280;2023-04-24T07:37:54;10.90;1.00
8709;DHT22;4391;48.678;9.280;2023-04-24T07:40:22;10.90;17.40
8709;DHT22;4391;48.678;9.280;2023-04-24T07:42:49;10.60;29.80
8709;DHT22;4391;48.678;9.280;2023-04-24T07:45:16;10.40;1.00
8709;DHT22;4391;48.678;9.280;2023-04-24T07:47:43;10.10;1.00
8709;DHT22;4391;48.678;9.280;2023-04-24T07:50:11;10.00;1.00
8709;DHT22;4391;48.678;9.280;2023-04-24T07:52:39;10.10;1.00
8709;DHT22;4391;48.678;9.280;2023-04-24T07:55:06;10.40;1.00
8709;DHT22;4391;48.678;9.280;2023-04-24T07:57:35;10.80;1.00
8709;DHT22;4391;48.678;9.280;2023-04-24T08:00:03;11.20;1.00
8709;DHT22;4391;48.678;9.280;2023-04-24T08:02:31;11.60;99.90
8709;DHT22;4391;48.678;9.280;2023-04-24T08:04:58;12.00;99.90
8709;DHT22;4391;48.678;9.280;2023-04-24T08:07:24;12.40;96.50
8709;DHT22;4391;48.678;9.280;2023-04-24T08:09:51;12.80;99.90
8709;DHT22;4391;48.678;9.280;2023-04-24T08:12:18;13.50;99.90
8709;DHT22;4391;48.678;9.280;2023-04-24T08:14:46;14.10;1.00
8709;DHT22;4391;48.678;9.280;2023-04-24T08:17:13;13.90;1.00
8709;DHT22;4391;48.678;9.280;2023-04-24T08:19:40;13.70;1.00
8709;DHT22;4391;48.678;9.280;2023-04-24T08:22:12;13.20;1.00
8709;DHT22;4391;48.678;9.280;2023-04-24T08:24:40;13.20;1.00
8709;DHT22;4391;48.678;9.280;2023-04-24T08:27:06;13.50;1.00
8709;DHT22;4391;48.678;9.280;2023-04-24T08:29:33;13.40;1.00
8709;DHT22;4391;48.678;9.280;2023-04-24T08:32:02;12.80;99.90
8709;DHT22;4391;48.678;9.280;2023-04-24T08:34:29;12.40;1.00
8709;DHT22;4391;48.678;9.280;2023-04-24T08:36:56;12.10;1.00
8709;DHT22;4391;48.678;9.280;2023-04-24T08:39:22;12.00;1.00
8709;DHT22;4391;48.678;9.280;2023-04-24T08:41:50;11.80;1.00
8709;DHT22;4391;48.678;9.280;2023-04-24T08:44:19;11.70;1.00
8709;DHT22;4391;48.678;9.280;2023-04-24T08:46:48;11.60;1.00
8709;DHT22;4391;48.678;9.280;2023-04-24T08:49:18;11.60;1.00
8709;DHT22;4391;48.678;9.280;2023-04-24T08:51:45;11.90;1.00
8709;DHT22;4391;48.678;9.280;2023-04-24T08:54:13;12.40;1.00
8709;DHT22;4391;48.678;9.280;2023-04-24T08:56:42;13.10;1.00
8709;DHT22;4391;48.678;9.280;2023-04-24T08:59:10;13.50;99.90
8709;DHT22;4391;48.678;9.280;2023-04-24T09:01:38;14.00;99.90
8709;DHT22;4391;48.678;9.280;2023-04-24T09:04:07;14.20;99.90
8709;DHT22;4391;48.678;9.280;2023-04-24T09:06:36;14.00;99.90
8709;DHT22;4391;48.678;9.280;2023-04-24T09:09:03;13.70;99.90
8709;DHT22;4391;48.678;9.280;2023-04-24T09:11:31;13.40;99.90
8709;DHT22;4391;48.678;9.280;2023-04-24T09:13:58;13.00;99.90
8709;DHT22;4391;48.678;9.280;2023-04-24T09:16:25;12.80;99.90
8709;DHT22;4391;48.678;9.280;2023-04-24T09:18:53;12.60;99.90
8709;DHT22;4391;48.678;9.280;2023-04-24T09:21:21;12.60;99.90
8709;DHT22;4391;48.678;9.280;2023-04-24T09:23:59;12.90;99.90
8709;DHT22;4391;48.678;9.280;2023-04-24T09:26:29;13.20;99.90
8709;DHT22;4391;48.678;9.280;2023-04-24T09:28:57;13.40;99.90
8709;DHT22;4391;48.678;9.280;2023-04-24T09:31:27;13.60;99.90
8709;DHT22;4391;48.678;9.280;2023-04-24T09:33:54;13.80;99.90
8709;DHT22;4391;48.678;9.280;2023-04-24T09:36:27;13.80;99.90
8709;DHT22;4391;48.678;9.280;2023-04-24T09:38:59;13.80;99.90
8709;DHT22;4391;48.678;9.280;2023-04-24T09:41:27;13.50;99.90
8709;DHT22;4391;48.678;9.280;2023-04-24T09:43:55;13.70;99.90
8709;DHT22;4391;48.678;9.280;2023-04-24T09:46:29;14.20;99.90
8709;DHT22;4391;48.678;9.280;2023-04-24T09:48:56;14.30;99.90
8709;DHT22;4391;48.678;9.280;2023-04-24T09:51:33;14.40;99.90
8709;DHT22;4391;48.678;9.280;2023-04-24T09:54:03;14.80;99.90
8709;DHT22;4391;48.678;9.280;2023-04-24T09:56:33;15.00;99.90
8709;DHT22;4391;48.678;9.280;2023-04-24T09:59:06;15.10;99.90
8709;DHT22;4391;48.678;9.280;2023-04-24T10:01:33;14.80;99.90
8709;DHT22;4391;48.678;9.280;2023-04-24T10:04:00;14.90;99.90
8709;DHT22;4391;48.678;9.280;2023-04-24T10:06:33;15.30;99.90
8709;DHT22;4391;48.678;9.280;2023-04-24T10:09:00;15.60;99.90
8709;DHT22;4391;48.678;9.280;2023-04-24T10:11:28;16.40;99.90
8709;DHT22;4391;48.678;9.280;2023-04-24T10:13:56;16.00;99.90
8709;DHT22;4391;48.678;9.280;2023-04-24T10:16:24;15.20;99.90
8709;DHT22;4391;48.678;9.280;2023-04-24T10:18:52;14.40;99.90
8709;DHT22;4391;48.678;9.280;2023-04-24T10:21:19;14.20;99.90
8709;DHT22;4391;48.678;9.280;2023-04-24T10:23:48;14.10;99.90
8709;DHT22;4391;48.678;9.280;2023-04-24T10:26:16;14.30;99.90
8709;DHT22;4391;48.678;9.280;2023-04-24T10:28:47;15.30;99.90
8709;DHT22;4391;48.678;9.280;2023-04-24T10:31:14;16.60;99.90
8709;DHT22;4391;48.678;9.280;2023-04-24T10:33:42;17.70;99.90
8709;DHT22;4391;48.678;9.280;2023-04-24T10:36:10;18.30;99.90
8709;DHT22;4391;48.678;9.280;2023-04-24T10:38:39;18.70;99.90
8709;DHT22;4391;48.678;9.280;2023-04-24T10:41:08;19.10;99.90
8709;DHT22;4391;48.678;9.280;2023-04-24T10:43:41;19.30;99.90
8709;DHT22;4391;48.678;9.280;2023-04-24T10:46:10;19.30;99.90
8709;DHT22;4391;48.678;9.280;2023-04-24T10:48:42;18.50;99.90
8709;DHT22;4391;48.678;9.280;2023-04-24T10:51:12;16.80;99.90
8709;DHT22;4391;48.678;9.280;2023-04-24T10:53:39;16.30;99.90
8709;DHT22;4391;48.678;9.280;2023-04-24T10:56:07;16.30;99.90
8709;DHT22;4391;48.678;9.280;2023-04-24T10:58:41;16.00;99.90
8709;DHT22;4391;48.678;9.280;2023-04-24T11:01:23;16.10;99.90
8709;DHT22;4391;48.678;9.280;2023-04-24T11:03:54;15.80;99.90
8709;DHT22;4391;48.678;9.280;2023-04-24T11:06:28;15.40;99.90
8709;DHT22;4391;48.678;9.280;2023-04-24T11:09:02;14.80;99.90
8709;DHT22;4391;48.678;9.280;2023-04-24T11:11:31;14.60;99.90
8709;DHT22;4391;48.678;9.280;2023-04-24T11:14:10;14.30;99.90
8709;DHT22;4391;48.678;9.280;2023-04-24T11:16:44;13.80;99.90
8709;DHT22;4391;48.678;9.280;2023-04-24T11:19:20;13.40;99.90
8709;DHT22;4391;48.678;9.280;2023-04-24T11:21:50;12.90;99.90
8709;DHT22;4391;48.678;9.280;2023-04-24T11:24:31;12.70;99.90
8709;DHT22;4391;48.678;9.280;2023-04-24T11:27:05;12.80;99.90
8709;DHT22;4391;48.678;9.280;2023-04-24T11:29:39;13.10;99.90
8709;DHT22;4391;48.678;9.280;2023-04-24T11:32:19;13.10;99.90
8709;DHT22;4391;48.678;9.280;2023-04-24T11:34:50;13.60;99.90
8709;DHT22;4391;48.678;9.280;2023-04-24T11:37:17;14.00;99.90
8709;DHT22;4391;48.678;9.280;2023-04-24T11:39:44;13.90;99.90
8709;DHT22;4391;48.678;9.280;2023-04-24T11:42:12;13.70;99.90
8709;DHT22;4391;48.678;9.280;2023-04-24T11:44:41;13.40;99.90
8709;DHT22;4391;48.678;9.280;2023-04-24T11:47:08;13.20;99.90
8709;DHT22;4391;48.678;9.280;2023-04-24T11:49:38;12.90;99.90
8709;DHT22;4391;48.678;9.280;2023-04-24T11:52:05;12.80;99.90
8709;DHT22;4391;48.678;9.280;2023-04-24T11:54:32;12.80;99.90
8709;DHT22;4391;48.678;9.280;2023-04-24T11:56:59;12.70;99.90
8709;DHT22;4391;48.678;9.280;2023-04-24T11:59:26;12.60;99.90
8709;DHT22;4391;48.678;9.280;2023-04-24T12:01:52;12.50;99.90
8709;DHT22;4391;48.678;9.280;2023-04-24T12:04:20;12.80;99.90
8709;DHT22;4391;48.678;9.280;2023-04-24T12:07:03;13.10;99.90
8709;DHT22;4391;48.678;9.280;2023-04-24T12:09:40;13.60;99.90
8709;DHT22;4391;48.678;9.280;2023-04-24T12:12:07;13.40;99.90
8709;DHT22;4391;48.678;9.280;2023-04-24T12:14:45;13.40;99.90
8709;DHT22;4391;48.678;9.280;2023-04-24T12:17:13;14.60;99.90
8709;DHT22;4391;48.678;9.280;2023-04-24T12:19:45;15.30;99.90
8709;DHT22;4391;48.678;9.280;2023-04-24T12:22:14;15.90;99.90
8709;DHT22;4391;48.678;9.280;2023-04-24T12:24:57;16.30;99.90
8709;DHT22;4391;48.678;9.280;2023-04-24T12:27:25;15.60;99.90
8709;DHT22;4391;48.678;9.280;2023-04-24T12:29:52;14.40;99.90
8709;DHT22;4391;48.678;9.280;2023-04-24T12:32:20;13.60;99.90
8709;DHT22;4391;48.678;9.280;2023-04-24T12:34:46;13.20;99.90
8709;DHT22;4391;48.678;9.280;2023-04-24T12:37:15;12.90;99.90
8709;DHT22;4391;48.678;9.280;2023-04-24T12:39:57;12.80;99.90
8709;DHT22;4391;48.678;9.280;2023-04-24T12:42:26;12.80;99.90
8709;DHT22;4391;48.678;9.280;2023-04-24T12:44:57;13.30;99.90
8709;DHT22;4391;48.678;9.280;2023-04-24T12:47:25;13.90;99.90
8709;DHT22;4391;48.678;9.280;2023-04-24T12:49:52;14.30;99.90
8709;DHT22;4391;48.678;9.280;2023-04-24T12:52:22;14.80;99.90
8709;DHT22;4391;48.678;9.280;2023-04-24T12:54:49;15.30;99.90
8709;DHT22;4391;48.678;9.280;2023-04-24T12:57:17;15.60;99.90
8709;DHT22;4391;48.678;9.280;2023-04-24T12:59:43;16.10;99.90
8709;DHT22;4391;48.678;9.280;2023-04-24T13:02:11;15.90;99.90
8709;DHT22;4391;48.678;9.280;2023-04-24T13:04:38;15.70;99.90
8709;DHT22;4391;48.678;9.280;2023-04-24T13:07:05;15.00;99.90
8709;DHT22;4391;48.678;9.280;2023-04-24T13:09:34;14.70;99.90
8709;DHT22;4391;48.678;9.280;2023-04-24T13:12:02;14.20;99.90
8709;DHT22;4391;48.678;9.280;2023-04-24T13:14:28;13.90;99.90
8709;DHT22;4391;48.678;9.280;2023-04-24T13:16:55;13.30;99.90
8709;DHT22;4391;48.678;9.280;2023-04-24T13:19:24;13.00;99.90
8709;DHT22;4391;48.678;9.280;2023-04-24T13:21:51;12.90;99.90
8709;DHT22;4391;48.678;9.280;2023-04-24T13:24:18;12.90;99.90
8709;DHT22;4391;48.678;9.280;2023-04-24T13:26:46;12.80;99.90
8709;DHT22;4391;48.678;9.280;2023-04-24T13:29:13;12.80;99.90
8709;DHT22;4391;48.678;9.280;2023-04-24T13:31:40;12.80;99.90
8709;DHT22;4391;48.678;9.280;2023-04-24T13:34:07;12.80;99.90
8709;DHT22;4391;48.678;9.280;2023-04-24T13:36:34;12.80;99.90
8709;DHT22;4391;48.678;9.280;2023-04-24T13:39:01;12.70;99.90
8709;DHT22;4391;48.678;9.280;2023-04-24T13:41:29;13.20;99.90
8709;DHT22;4391;48.678;9.280;2023-04-24T13:43:57;13.30;99.90
8709;DHT22;4391;48.678;9.280;2023-04-24T13:46:24;13.30;99.90
8709;DHT22;4391;48.678;9.280;2023-04-24T13:48:51;13.40;99.90
8709;DHT22;4391;48.678;9.280;2023-04-24T13:51:18;13.10;99.90
8709;DHT22;4391;48.678;9.280;2023-04-24T13:53:45;12.90;99.90
8709;DHT22;4391;48.678;9.280;2023-04-24T13:56:12;12.60;99.90
8709;DHT22;4391;48.678;9.280;2023-04-24T13:58:39;12.50;99.90
8709;DHT22;4391;48.678;9.280;2023-04-24T14:01:08;12.40;99.90
8709;DHT22;4391;48.678;9.280;2023-04-24T14:03:37;12.20;99.90
8709;DHT22;4391;48.678;9.280;2023-04-24T14:07:24;13.00;99.90
8709;DHT22;4391;48.678;9.280;2023-04-24T14:09:51;11.80;99.90
8709;DHT22;4391;48.678;9.280;2023-04-24T14:12:18;12.10;99.90
8709;DHT22;4391;48.678;9.280;2023-04-24T14:14:46;12.90;99.90
8709;DHT22;4391;48.678;9.280;2023-04-24T14:17:13;13.50;99.90
8709;DHT22;4391;48.678;9.280;2023-04-24T14:19:40;14.00;99.90
8709;DHT22;4391;48.678;9.280;2023-04-24T14:22:07;14.30;99.90
8709;DHT22;4391;48.678;9.280;2023-04-24T14:24:36;14.20;99.90
8709;DHT22;4391;48.678;9.280;2023-04-24T14:27:03;13.70;99.90
8709;DHT22;4391;48.678;9.280;2023-04-24T14:29:29;13.40;99.90
8709;DHT22;4391;48.678;9.280;2023-04-24T14:31:56;13.30;99.90
8709;DHT22;4391;48.678;9.280;2023-04-24T14:34:23;13.20;99.90
8709;DHT22;4391;48.678;9.280;2023-04-24T14:36:50;13.10;99.90
8709;DHT22;4391;48.678;9.280;2023-04-24T14:39:17;12.80;99.90
8709;DHT22;4391;48.678;9.280;2023-04-24T14:41:45;12.50;99.90
8709;DHT22;4391;48.678;9.280;2023-04-24T14:44:15;12.50;99.90
8709;DHT22;4391;48.678;9.280;2023-04-24T14:46:42;12.40;1.00
8709;DHT22;4391;48.678;9.280;2023-04-24T14:49:09;12.30;1.00
8709;DHT22;4391;48.678;9.280;2023-04-24T14:51:38;12.20;1.00
8709;DHT22;4391;48.678;9.280;2023-04-24T14:54:06;12.60;1.00
8709;DHT22;4391;48.678;9.280;2023-04-24T14:56:33;13.20;1.00
8709;DHT22;4391;48.678;9.280;2023-04-24T14:59:01;14.10;99.90
8709;DHT22;4391;48.678;9.280;2023-04-24T15:01:29;15.80;99.90
8709;DHT22;4391;48.678;9.280;2023-04-24T15:03:56;17.20;99.90
8709;DHT22;4391;48.678;9.280;2023-04-24T15:06:23;17.30;99.90
8709;DHT22;4391;48.678;9.280;2023-04-24T15:08:53;16.90;99.90
8709;DHT22;4391;48.678;9.280;2023-04-24T15:11:20;17.60;99.90
8709;DHT22;4391;48.678;9.280;2023-04-24T15:13:47;18.80;99.90
8709;DHT22;4391;48.678;9.280;2023-04-24T15:16:15;19.10;99.90
8709;DHT22;4391;48.678;9.280;2023-04-24T15:18:42;18.50;99.90
8709;DHT22;4391;48.678;9.280;2023-04-24T15:21:09;17.50;99.90
8709;DHT22;4391;48.678;9.280;2023-04-24T15:23:38;16.50;99.90
8709;DHT22;4391;48.678;9.280;2023-04-24T15:26:04;15.70;99.90
8709;DHT22;4391;48.678;9.280;2023-04-24T15:28:31;15.10;99.90
8709;DHT22;4391;48.678;9.280;2023-04-24T15:30:58;14.60;99.90
8709;DHT22;4391;48.678;9.280;2023-04-24T15:33:26;14.10;99.90
8709;DHT22;4391;48.678;9.280;2023-04-24T15:35:53;14.00;99.90
8709;DHT22;4391;48.678;9.280;2023-04-24T15:38:20;13.90;99.90
8709;DHT22;4391;48.678;9.280;2023-04-24T15:40:47;13.50;99.90
8709;DHT22;4391;48.678;9.280;2023-04-24T15:43:14;13.20;99.90
8709;DHT22;4391;48.678;9.280;2023-04-24T15:45:42;12.90;99.90
8709;DHT22;4391;48.678;9.280;2023-04-24T15:48:09;12.80;99.90
8709;DHT22;4391;48.678;9.280;2023-04-24T15:50:37;12.60;99.90
8709;DHT22;4391;48.678;9.280;2023-04-24T15:53:05;12.40;99.90
8709;DHT22;4391;48.678;9.280;2023-04-24T15:55:32;12.60;99.90
8709;DHT22;4391;48.678;9.280;2023-04-24T15:58:02;12.70;99.90
8709;DHT22;4391;48.678;9.280;2023-04-24T16:00:29;12.60;99.90
8709;DHT22;4391;48.678;9.280;2023-04-24T16:02:58;12.90;99.90
8709;DHT22;4391;48.678;9.280;2023-04-24T16:05:25;12.90;99.90
8709;DHT22;4391;48.678;9.280;2023-04-24T16:07:54;12.90;99.90
8709;DHT22;4391;48.678;9.280;2023-04-24T16:10:21;12.80;99.90
8709;DHT22;4391;48.678;9.280;2023-04-24T16:12:48;12.60;99.90
8709;DHT22;4391;48.678;9.280;2023-04-24T16:15:16;12.60;99.90